Virden, New Mexico
Current Conditions -  °F | °C
As of 8:15 PM on Friday 21 Nov 2014 (Local Time) from KLSB Reporting Station
Scattered Clouds Scattered Clouds  
Wind Chill:   Ceiling: Unl
Heat Index:   Visibility: 10mi
Dew Point: -3°   Wind: 5mph
Humidity: 49%   Direction: 280°W
Pressure: 29.98"   Gusts: NA
Location:  32.3095°N, 108.813°W
Report Text: KLSB 220315Z AUTO 28004KT 10SM SCT120 07/M03 A2998 RMK AO2
Loading
Personal Weather Stations






























Interactive Weather Map New forecast layout! Learn more

10-Day Weather Forecast

Advertisements
Track Severe Weather on mobile